Aeroporto :
LOGIN :

Iscrizione | Disclaimer

   EN    FR    IT 

 










Sommario :    VFR   VFR Marginale   IFR   IFR Intensivo   IFR Molto Intensivo
Visibilità : 
Base nubi : 
>= 8 km
>= 3000ft
5 / 8 km
1000 / 3000 ft
1500m / 5 km
500 / 1000 ft
800 / 1500m
200 / 500 ft
< 800m
< 200 ft
Simboli :   Temporali  Nebbia  Neve Forte  Precipitazioni Forti  Vento > 20 kt
SIGMETs :   Varie  Temporali  Ghiacco  Turbolenza  Onda orograficha  Ceneri Vulcaniche






- Altitudine del aeroporto : 322 ft


LHSN - Szolnok

ULTIMO METAR :
  • 272045Z 17006KT CAVOK 02/M02 Q1004 NOSIG RMK BLU

METARs OBSOLETI :
  • 272015Z 18006KT CAVOK 02/M03 Q1005 NOSIG RMK BLU
  • 271945Z 20006KT CAVOK 02/M03 Q1005 NOSIG RMK BLU
  • 271915Z 23006KT CAVOK 03/M03 Q1005 NOSIG RMK BLU
  • 271845Z 24004KT CAVOK 03/M03 Q1005 NOSIG RMK BLU
  • 271815Z 24004KT CAVOK 03/M03 Q1006 NOSIG RMK BLU
  • 271745Z 24004KT CAVOK 04/M03 Q1006 NOSIG RMK BLU

TAF TAF LHSN
Valido dal 27 a 21 ore il 28 a 06 ore UTC


272015Z 2721/2806 18007KT CAVOK
TEMPO 2723/2804 20010G20KT
TEMPO 2801/2806 5000 BR RA SNRA SCT030 BKN050



MetMap, La meteo Aeronautica in un colpo d'occhio ! - Copyright ORBIFLY Dicembre 2007 - Disclaimer

ORBIFLY MET'MAP TEAM :

Programmazione e sviluppo : Alexandra Zaïnal
Concezione : Baudouin d'Aumeries
Aiuto per la programmazione : Marc-Olivier Méhu
Supporto tecnico e logistico : Manuel Goepfert
Aiuto per la traduzione : Arnaldo La Scala

Contatto : metmap@orbifly.com




FONTI E CREDITI :

   NOAA